sensor_id;sensor_type;location;lat;lon;timestamp;P1;durP1;ratioP1;P2;durP2;ratioP2
51374;SDS011;37465;52.738;4.752;2023-03-23T00:02:22;16.23;;;9.40;;
51374;SDS011;37465;52.738;4.752;2023-03-23T00:04:50;15.57;;;8.73;;
51374;SDS011;37465;52.738;4.752;2023-03-23T00:07:16;13.38;;;7.93;;
51374;SDS011;37465;52.738;4.752;2023-03-23T00:09:46;15.05;;;7.53;;
51374;SDS011;37465;52.738;4.752;2023-03-23T00:12:12;13.52;;;8.18;;
51374;SDS011;37465;52.738;4.752;2023-03-23T00:14:40;16.10;;;7.90;;
51374;SDS011;37465;52.738;4.752;2023-03-23T00:17:08;13.73;;;7.38;;
51374;SDS011;37465;52.738;4.752;2023-03-23T00:19:36;13.52;;;7.25;;
51374;SDS011;37465;52.738;4.752;2023-03-23T00:22:12;15.15;;;7.07;;
51374;SDS011;37465;52.738;4.752;2023-03-23T00:24:38;12.88;;;6.82;;
51374;SDS011;37465;52.738;4.752;2023-03-23T00:27:05;12.70;;;6.20;;
51374;SDS011;37465;52.738;4.752;2023-03-23T00:29:31;10.50;;;5.78;;
51374;SDS011;37465;52.738;4.752;2023-03-23T00:31:58;12.90;;;5.93;;
51374;SDS011;37465;52.738;4.752;2023-03-23T00:34:24;12.40;;;5.70;;
51374;SDS011;37465;52.738;4.752;2023-03-23T00:36:51;10.73;;;5.15;;
51374;SDS011;37465;52.738;4.752;2023-03-23T00:39:19;11.63;;;5.27;;
51374;SDS011;37465;52.738;4.752;2023-03-23T00:41:49;12.00;;;5.10;;
51374;SDS011;37465;52.738;4.752;2023-03-23T00:44:15;9.45;;;4.72;;
51374;SDS011;37465;52.738;4.752;2023-03-23T00:46:42;9.07;;;4.60;;
51374;SDS011;37465;52.738;4.752;2023-03-23T00:49:11;8.52;;;4.20;;
51374;SDS011;37465;52.738;4.752;2023-03-23T00:51:38;8.20;;;3.88;;
51374;SDS011;37465;52.738;4.752;2023-03-23T00:54:05;7.75;;;4.25;;
51374;SDS011;37465;52.738;4.752;2023-03-23T00:56:32;9.18;;;3.97;;
51374;SDS011;37465;52.738;4.752;2023-03-23T00:58:59;10.18;;;4.20;;
51374;SDS011;37465;52.738;4.752;2023-03-23T01:01:25;9.45;;;3.80;;
51374;SDS011;37465;52.738;4.752;2023-03-23T01:03:52;7.55;;;4.07;;
51374;SDS011;37465;52.738;4.752;2023-03-23T01:06:26;8.10;;;3.40;;
51374;SDS011;37465;52.738;4.752;2023-03-23T01:08:53;8.48;;;3.58;;
51374;SDS011;37465;52.738;4.752;2023-03-23T01:11:19;6.75;;;3.10;;
51374;SDS011;37465;52.738;4.752;2023-03-23T01:13:47;7.32;;;2.90;;
51374;SDS011;37465;52.738;4.752;2023-03-23T01:18:41;5.68;;;2.60;;
51374;SDS011;37465;52.738;4.752;2023-03-23T01:21:08;7.90;;;2.80;;
51374;SDS011;37465;52.738;4.752;2023-03-23T01:23:35;7.38;;;2.72;;
51374;SDS011;37465;52.738;4.752;2023-03-23T01:26:05;7.55;;;2.50;;
51374;SDS011;37465;52.738;4.752;2023-03-23T01:28:32;6.85;;;2.40;;
51374;SDS011;37465;52.738;4.752;2023-03-23T01:31:01;7.82;;;2.40;;
51374;SDS011;37465;52.738;4.752;2023-03-23T01:33:28;5.80;;;2.33;;
51374;SDS011;37465;52.738;4.752;2023-03-23T01:35:54;8.13;;;2.17;;
51374;SDS011;37465;52.738;4.752;2023-03-23T01:38:21;6.40;;;2.40;;
51374;SDS011;37465;52.738;4.752;2023-03-23T01:40:47;7.15;;;2.50;;
51374;SDS011;37465;52.738;4.752;2023-03-23T01:43:14;6.47;;;2.25;;
51374;SDS011;37465;52.738;4.752;2023-03-23T01:45:41;7.22;;;2.25;;
51374;SDS011;37465;52.738;4.752;2023-03-23T01:48:10;6.45;;;2.10;;
51374;SDS011;37465;52.738;4.752;2023-03-23T01:50:41;7.47;;;2.20;;
51374;SDS011;37465;52.738;4.752;2023-03-23T01:53:09;7.70;;;2.37;;
51374;SDS011;37465;52.738;4.752;2023-03-23T01:55:37;8.00;;;2.20;;
51374;SDS011;37465;52.738;4.752;2023-03-23T01:58:04;5.20;;;2.03;;
51374;SDS011;37465;52.738;4.752;2023-03-23T02:00:32;7.03;;;1.90;;
51374;SDS011;37465;52.738;4.752;2023-03-23T02:02:59;8.70;;;2.20;;
51374;SDS011;37465;52.738;4.752;2023-03-23T02:05:28;6.70;;;1.90;;
51374;SDS011;37465;52.738;4.752;2023-03-23T02:07:56;7.60;;;2.30;;
51374;SDS011;37465;52.738;4.752;2023-03-23T02:10:27;4.60;;;1.80;;
51374;SDS011;37465;52.738;4.752;2023-03-23T02:12:54;7.63;;;1.83;;
51374;SDS011;37465;52.738;4.752;2023-03-23T02:15:20;6.82;;;2.38;;
51374;SDS011;37465;52.738;4.752;2023-03-23T02:17:49;6.77;;;2.03;;
51374;SDS011;37465;52.738;4.752;2023-03-23T02:20:19;6.47;;;1.98;;
51374;SDS011;37465;52.738;4.752;2023-03-23T02:22:54;5.60;;;1.83;;
51374;SDS011;37465;52.738;4.752;2023-03-23T02:25:41;5.97;;;2.05;;
51374;SDS011;37465;52.738;4.752;2023-03-23T02:31:00;12.00;;;2.78;;
51374;SDS011;37465;52.738;4.752;2023-03-23T02:33:30;9.93;;;2.35;;
51374;SDS011;37465;52.738;4.752;2023-03-23T02:36:01;13.23;;;2.30;;
51374;SDS011;37465;52.738;4.752;2023-03-23T02:38:32;8.90;;;2.20;;
51374;SDS011;37465;52.738;4.752;2023-03-23T02:41:00;8.27;;;2.20;;
51374;SDS011;37465;52.738;4.752;2023-03-23T02:43:28;8.45;;;2.50;;
51374;SDS011;37465;52.738;4.752;2023-03-23T02:45:56;14.30;;;3.10;;
51374;SDS011;37465;52.738;4.752;2023-03-23T02:48:24;11.20;;;2.57;;
51374;SDS011;37465;52.738;4.752;2023-03-23T02:50:54;9.70;;;3.00;;
51374;SDS011;37465;52.738;4.752;2023-03-23T02:53:22;11.93;;;3.08;;
51374;SDS011;37465;52.738;4.752;2023-03-23T02:55:49;12.13;;;3.25;;
51374;SDS011;37465;52.738;4.752;2023-03-23T02:58:18;9.65;;;3.10;;
51374;SDS011;37465;52.738;4.752;2023-03-23T03:00:44;11.57;;;3.35;;
51374;SDS011;37465;52.738;4.752;2023-03-23T03:03:15;13.13;;;3.10;;
51374;SDS011;37465;52.738;4.752;2023-03-23T03:05:43;9.93;;;3.20;;
51374;SDS011;37465;52.738;4.752;2023-03-23T03:08:14;12.10;;;3.33;;
51374;SDS011;37465;52.738;4.752;2023-03-23T03:10:44;10.25;;;3.08;;
51374;SDS011;37465;52.738;4.752;2023-03-23T03:13:14;15.47;;;3.70;;
51374;SDS011;37465;52.738;4.752;2023-03-23T03:15:43;14.15;;;3.35;;
51374;SDS011;37465;52.738;4.752;2023-03-23T03:18:11;11.55;;;2.92;;
51374;SDS011;37465;52.738;4.752;2023-03-23T03:20:40;13.25;;;3.15;;
51374;SDS011;37465;52.738;4.752;2023-03-23T03:23:10;12.32;;;3.42;;
51374;SDS011;37465;52.738;4.752;2023-03-23T03:25:39;15.13;;;2.85;;
51374;SDS011;37465;52.738;4.752;2023-03-23T03:28:07;15.25;;;2.97;;
51374;SDS011;37465;52.738;4.752;2023-03-23T03:30:35;11.70;;;2.63;;
51374;SDS011;37465;52.738;4.752;2023-03-23T03:33:02;14.07;;;2.60;;
51374;SDS011;37465;52.738;4.752;2023-03-23T03:35:29;14.10;;;2.85;;
51374;SDS011;37465;52.738;4.752;2023-03-23T03:37:56;11.32;;;2.60;;
51374;SDS011;37465;52.738;4.752;2023-03-23T03:40:25;15.23;;;2.97;;
51374;SDS011;37465;52.738;4.752;2023-03-23T03:42:54;10.77;;;2.40;;
51374;SDS011;37465;52.738;4.752;2023-03-23T03:45:20;10.77;;;2.55;;
51374;SDS011;37465;52.738;4.752;2023-03-23T03:47:47;14.63;;;2.70;;
51374;SDS011;37465;52.738;4.752;2023-03-23T03:50:13;15.15;;;2.90;;
51374;SDS011;37465;52.738;4.752;2023-03-23T03:52:41;12.03;;;3.27;;
51374;SDS011;37465;52.738;4.752;2023-03-23T03:55:08;13.60;;;3.10;;
51374;SDS011;37465;52.738;4.752;2023-03-23T03:57:35;13.45;;;2.67;;
51374;SDS011;37465;52.738;4.752;2023-03-23T04:00:04;15.17;;;3.30;;
51374;SDS011;37465;52.738;4.752;2023-03-23T04:02:40;14.35;;;2.92;;
51374;SDS011;37465;52.738;4.752;2023-03-23T04:05:07;14.30;;;2.83;;
51374;SDS011;37465;52.738;4.752;2023-03-23T04:07:34;17.05;;;2.95;;
51374;SDS011;37465;52.738;4.752;2023-03-23T04:10:03;14.45;;;3.03;;
51374;SDS011;37465;52.738;4.752;2023-03-23T04:12:30;15.75;;;3.95;;
51374;SDS011;37465;52.738;4.752;2023-03-23T04:14:57;20.93;;;3.73;;
51374;SDS011;37465;52.738;4.752;2023-03-23T04:17:25;20.45;;;3.60;;
51374;SDS011;37465;52.738;4.752;2023-03-23T04:19:52;21.40;;;3.90;;
51374;SDS011;37465;52.738;4.752;2023-03-23T04:22:21;16.67;;;3.40;;
51374;SDS011;37465;52.738;4.752;2023-03-23T04:24:49;21.33;;;4.05;;
51374;SDS011;37465;52.738;4.752;2023-03-23T04:27:16;27.42;;;4.70;;
51374;SDS011;37465;52.738;4.752;2023-03-23T04:29:43;21.00;;;4.00;;
51374;SDS011;37465;52.738;4.752;2023-03-23T04:32:14;23.27;;;4.40;;
51374;SDS011;37465;52.738;4.752;2023-03-23T04:34:44;20.88;;;3.97;;
51374;SDS011;37465;52.738;4.752;2023-03-23T04:37:10;21.05;;;3.85;;
51374;SDS011;37465;52.738;4.752;2023-03-23T04:39:38;20.85;;;3.97;;
51374;SDS011;37465;52.738;4.752;2023-03-23T04:42:06;20.60;;;3.70;;
51374;SDS011;37465;52.738;4.752;2023-03-23T04:44:34;25.25;;;3.85;;
51374;SDS011;37465;52.738;4.752;2023-03-23T04:47:00;19.48;;;4.15;;
51374;SDS011;37465;52.738;4.752;2023-03-23T04:49:27;22.92;;;3.80;;
51374;SDS011;37465;52.738;4.752;2023-03-23T04:51:56;21.58;;;3.92;;
51374;SDS011;37465;52.738;4.752;2023-03-23T04:54:22;22.30;;;4.07;;
51374;SDS011;37465;52.738;4.752;2023-03-23T04:56:49;22.80;;;3.60;;
51374;SDS011;37465;52.738;4.752;2023-03-23T04:59:15;22.45;;;3.80;;
51374;SDS011;37465;52.738;4.752;2023-03-23T05:01:42;19.08;;;3.75;;
51374;SDS011;37465;52.738;4.752;2023-03-23T05:04:10;20.80;;;4.10;;
51374;SDS011;37465;52.738;4.752;2023-03-23T05:06:38;18.20;;;3.80;;
51374;SDS011;37465;52.738;4.752;2023-03-23T05:09:07;21.02;;;3.60;;
51374;SDS011;37465;52.738;4.752;2023-03-23T05:11:34;20.23;;;3.75;;
51374;SDS011;37465;52.738;4.752;2023-03-23T05:14:00;23.23;;;3.97;;
51374;SDS011;37465;52.738;4.752;2023-03-23T05:16:26;19.70;;;3.50;;
51374;SDS011;37465;52.738;4.752;2023-03-23T05:18:55;18.60;;;3.80;;
51374;SDS011;37465;52.738;4.752;2023-03-23T05:21:22;19.48;;;3.22;;
51374;SDS011;37465;52.738;4.752;2023-03-23T05:23:49;20.02;;;3.95;;
51374;SDS011;37465;52.738;4.752;2023-03-23T05:26:21;23.98;;;4.00;;
51374;SDS011;37465;52.738;4.752;2023-03-23T05:28:48;21.90;;;4.05;;
51374;SDS011;37465;52.738;4.752;2023-03-23T05:31:17;19.20;;;3.77;;
51374;SDS011;37465;52.738;4.752;2023-03-23T05:33:43;23.90;;;4.03;;
51374;SDS011;37465;52.738;4.752;2023-03-23T05:36:10;20.27;;;4.15;;
51374;SDS011;37465;52.738;4.752;2023-03-23T05:38:38;23.73;;;4.32;;
51374;SDS011;37465;52.738;4.752;2023-03-23T05:41:07;22.60;;;4.07;;
51374;SDS011;37465;52.738;4.752;2023-03-23T05:43:35;23.05;;;4.32;;
51374;SDS011;37465;52.738;4.752;2023-03-23T05:46:01;26.95;;;5.13;;
51374;SDS011;37465;52.738;4.752;2023-03-23T05:48:28;29.50;;;4.93;;
51374;SDS011;37465;52.738;4.752;2023-03-23T05:50:54;21.80;;;4.20;;
51374;SDS011;37465;52.738;4.752;2023-03-23T05:53:21;26.67;;;4.93;;
51374;SDS011;37465;52.738;4.752;2023-03-23T05:55:48;29.05;;;5.93;;
51374;SDS011;37465;52.738;4.752;2023-03-23T05:58:14;25.52;;;4.82;;
51374;SDS011;37465;52.738;4.752;2023-03-23T06:00:42;27.67;;;4.85;;
51374;SDS011;37465;52.738;4.752;2023-03-23T06:03:10;27.45;;;5.13;;
51374;SDS011;37465;52.738;4.752;2023-03-23T06:05:41;26.05;;;5.00;;
51374;SDS011;37465;52.738;4.752;2023-03-23T06:08:09;25.30;;;4.38;;
51374;SDS011;37465;52.738;4.752;2023-03-23T06:10:35;24.25;;;4.32;;
51374;SDS011;37465;52.738;4.752;2023-03-23T06:13:02;25.00;;;5.30;;
51374;SDS011;37465;52.738;4.752;2023-03-23T06:15:28;25.02;;;4.80;;
51374;SDS011;37465;52.738;4.752;2023-03-23T06:17:58;30.00;;;5.97;;
51374;SDS011;37465;52.738;4.752;2023-03-23T06:20:25;26.85;;;4.63;;
51374;SDS011;37465;52.738;4.752;2023-03-23T06:22:51;21.35;;;4.03;;
51374;SDS011;37465;52.738;4.752;2023-03-23T06:25:18;30.70;;;4.40;;
51374;SDS011;37465;52.738;4.752;2023-03-23T06:27:44;22.75;;;4.35;;
51374;SDS011;37465;52.738;4.752;2023-03-23T06:30:12;23.03;;;4.57;;
51374;SDS011;37465;52.738;4.752;2023-03-23T06:32:40;23.35;;;4.35;;
51374;SDS011;37465;52.738;4.752;2023-03-23T06:35:09;25.65;;;4.70;;
51374;SDS011;37465;52.738;4.752;2023-03-23T06:37:36;23.65;;;4.22;;
51374;SDS011;37465;52.738;4.752;2023-03-23T06:40:03;19.42;;;4.13;;
51374;SDS011;37465;52.738;4.752;2023-03-23T06:42:30;26.27;;;4.53;;
51374;SDS011;37465;52.738;4.752;2023-03-23T06:44:57;22.35;;;4.22;;
51374;SDS011;37465;52.738;4.752;2023-03-23T06:47:25;24.25;;;4.57;;
51374;SDS011;37465;52.738;4.752;2023-03-23T06:49:52;21.58;;;5.10;;
51374;SDS011;37465;52.738;4.752;2023-03-23T06:52:20;19.40;;;3.65;;
51374;SDS011;37465;52.738;4.752;2023-03-23T06:54:47;21.88;;;4.57;;
51374;SDS011;37465;52.738;4.752;2023-03-23T06:57:14;23.17;;;4.85;;
51374;SDS011;37465;52.738;4.752;2023-03-23T06:59:41;23.00;;;4.60;;
51374;SDS011;37465;52.738;4.752;2023-03-23T07:02:08;21.20;;;4.43;;
51374;SDS011;37465;52.738;4.752;2023-03-23T07:04:34;23.65;;;4.47;;
51374;SDS011;37465;52.738;4.752;2023-03-23T07:07:01;23.73;;;4.03;;
51374;SDS011;37465;52.738;4.752;2023-03-23T07:09:28;22.33;;;4.53;;
51374;SDS011;37465;52.738;4.752;2023-03-23T07:11:55;23.85;;;4.90;;
51374;SDS011;37465;52.738;4.752;2023-03-23T07:14:22;25.92;;;4.93;;
51374;SDS011;37465;52.738;4.752;2023-03-23T07:16:48;24.13;;;4.83;;
51374;SDS011;37465;52.738;4.752;2023-03-23T07:19:15;30.75;;;5.15;;
51374;SDS011;37465;52.738;4.752;2023-03-23T07:21:41;30.45;;;5.47;;
51374;SDS011;37465;52.738;4.752;2023-03-23T07:24:09;30.30;;;5.13;;
51374;SDS011;37465;52.738;4.752;2023-03-23T07:26:38;23.17;;;5.23;;
51374;SDS011;37465;52.738;4.752;2023-03-23T07:29:05;26.87;;;4.73;;
51374;SDS011;37465;52.738;4.752;2023-03-23T07:31:31;27.48;;;5.60;;
51374;SDS011;37465;52.738;4.752;2023-03-23T07:33:58;34.78;;;5.45;;
51374;SDS011;37465;52.738;4.752;2023-03-23T07:36:24;30.93;;;5.27;;
51374;SDS011;37465;52.738;4.752;2023-03-23T07:38:51;29.02;;;5.63;;
51374;SDS011;37465;52.738;4.752;2023-03-23T07:41:18;31.27;;;6.57;;
51374;SDS011;37465;52.738;4.752;2023-03-23T07:43:46;28.73;;;5.38;;
51374;SDS011;37465;52.738;4.752;2023-03-23T07:46:12;29.65;;;5.20;;
51374;SDS011;37465;52.738;4.752;2023-03-23T07:48:39;30.30;;;6.30;;
51374;SDS011;37465;52.738;4.752;2023-03-23T07:51:06;33.22;;;5.63;;
51374;SDS011;37465;52.738;4.752;2023-03-23T07:53:33;29.65;;;6.38;;
51374;SDS011;37465;52.738;4.752;2023-03-23T07:55:59;27.95;;;5.68;;
51374;SDS011;37465;52.738;4.752;2023-03-23T07:58:27;31.17;;;5.60;;
51374;SDS011;37465;52.738;4.752;2023-03-23T08:00:55;27.83;;;5.30;;
51374;SDS011;37465;52.738;4.752;2023-03-23T08:03:22;24.70;;;5.15;;
51374;SDS011;37465;52.738;4.752;2023-03-23T08:05:49;26.00;;;5.25;;
51374;SDS011;37465;52.738;4.752;2023-03-23T08:08:16;24.42;;;5.20;;
51374;SDS011;37465;52.738;4.752;2023-03-23T08:10:43;27.58;;;5.05;;
51374;SDS011;37465;52.738;4.752;2023-03-23T08:13:10;25.25;;;5.50;;
51374;SDS011;37465;52.738;4.752;2023-03-23T08:15:36;25.05;;;5.18;;
51374;SDS011;37465;52.738;4.752;2023-03-23T08:18:04;20.98;;;4.45;;
51374;SDS011;37465;52.738;4.752;2023-03-23T08:20:31;25.83;;;5.03;;
51374;SDS011;37465;52.738;4.752;2023-03-23T08:22:58;24.67;;;4.57;;
51374;SDS011;37465;52.738;4.752;2023-03-23T08:25:25;24.25;;;4.97;;
51374;SDS011;37465;52.738;4.752;2023-03-23T08:27:52;26.05;;;5.25;;
51374;SDS011;37465;52.738;4.752;2023-03-23T08:30:19;25.98;;;4.80;;
51374;SDS011;37465;52.738;4.752;2023-03-23T08:32:46;24.58;;;4.85;;
51374;SDS011;37465;52.738;4.752;2023-03-23T08:35:14;23.80;;;4.90;;
51374;SDS011;37465;52.738;4.752;2023-03-23T08:37:41;19.90;;;4.65;;
51374;SDS011;37465;52.738;4.752;2023-03-23T08:40:08;21.50;;;4.37;;
51374;SDS011;37465;52.738;4.752;2023-03-23T08:42:35;27.92;;;4.70;;
51374;SDS011;37465;52.738;4.752;2023-03-23T08:45:02;23.23;;;4.63;;
51374;SDS011;37465;52.738;4.752;2023-03-23T08:47:29;21.30;;;4.53;;
51374;SDS011;37465;52.738;4.752;2023-03-23T08:49:56;23.70;;;4.87;;
51374;SDS011;37465;52.738;4.752;2023-03-23T08:52:24;20.00;;;4.00;;
51374;SDS011;37465;52.738;4.752;2023-03-23T08:54:50;21.23;;;4.50;;
51374;SDS011;37465;52.738;4.752;2023-03-23T08:57:16;17.70;;;4.07;;
51374;SDS011;37465;52.738;4.752;2023-03-23T08:59:43;20.77;;;4.27;;
51374;SDS011;37465;52.738;4.752;2023-03-23T09:02:10;19.17;;;4.03;;
51374;SDS011;37465;52.738;4.752;2023-03-23T09:04:36;20.20;;;4.25;;
51374;SDS011;37465;52.738;4.752;2023-03-23T09:07:03;20.30;;;4.28;;
51374;SDS011;37465;52.738;4.752;2023-03-23T09:09:31;18.67;;;4.10;;
51374;SDS011;37465;52.738;4.752;2023-03-23T09:11:59;20.83;;;3.80;;
51374;SDS011;37465;52.738;4.752;2023-03-23T09:14:25;21.65;;;4.05;;
51374;SDS011;37465;52.738;4.752;2023-03-23T09:16:52;20.02;;;4.28;;
51374;SDS011;37465;52.738;4.752;2023-03-23T09:19:18;20.45;;;4.00;;
51374;SDS011;37465;52.738;4.752;2023-03-23T09:21:45;18.98;;;3.90;;
51374;SDS011;37465;52.738;4.752;2023-03-23T09:24:11;19.40;;;4.05;;
51374;SDS011;37465;52.738;4.752;2023-03-23T09:26:39;18.13;;;3.65;;
51374;SDS011;37465;52.738;4.752;2023-03-23T09:29:08;18.00;;;3.65;;
51374;SDS011;37465;52.738;4.752;2023-03-23T09:31:36;14.80;;;3.30;;
51374;SDS011;37465;52.738;4.752;2023-03-23T09:34:03;20.55;;;3.80;;
51374;SDS011;37465;52.738;4.752;2023-03-23T09:36:30;17.00;;;3.42;;
51374;SDS011;37465;52.738;4.752;2023-03-23T09:38:57;18.70;;;3.58;;
51374;SDS011;37465;52.738;4.752;2023-03-23T09:41:33;15.55;;;3.63;;
51374;SDS011;37465;52.738;4.752;2023-03-23T09:44:06;16.02;;;3.40;;
51374;SDS011;37465;52.738;4.752;2023-03-23T09:46:37;16.60;;;3.15;;
51374;SDS011;37465;52.738;4.752;2023-03-23T09:49:08;15.00;;;3.40;;
51374;SDS011;37465;52.738;4.752;2023-03-23T09:51:39;13.52;;;3.28;;
51374;SDS011;37465;52.738;4.752;2023-03-23T09:54:13;16.58;;;3.53;;
51374;SDS011;37465;52.738;4.752;2023-03-23T09:56:40;16.33;;;3.67;;
51374;SDS011;37465;52.738;4.752;2023-03-23T09:59:11;15.52;;;3.05;;
51374;SDS011;37465;52.738;4.752;2023-03-23T10:01:39;18.65;;;3.10;;
51374;SDS011;37465;52.738;4.752;2023-03-23T10:04:10;14.27;;;3.17;;
51374;SDS011;37465;52.738;4.752;2023-03-23T10:06:38;13.70;;;3.05;;
51374;SDS011;37465;52.738;4.752;2023-03-23T10:09:05;14.55;;;3.00;;
51374;SDS011;37465;52.738;4.752;2023-03-23T10:11:35;15.83;;;3.00;;
51374;SDS011;37465;52.738;4.752;2023-03-23T10:14:13;15.98;;;3.17;;
51374;SDS011;37465;52.738;4.752;2023-03-23T10:16:42;15.90;;;3.45;;
51374;SDS011;37465;52.738;4.752;2023-03-23T10:19:15;13.82;;;3.05;;
51374;SDS011;37465;52.738;4.752;2023-03-23T10:21:44;20.70;;;3.70;;
51374;SDS011;37465;52.738;4.752;2023-03-23T10:24:14;17.50;;;3.25;;
51374;SDS011;37465;52.738;4.752;2023-03-23T10:26:45;18.83;;;3.78;;
51374;SDS011;37465;52.738;4.752;2023-03-23T10:29:16;14.73;;;3.13;;
51374;SDS011;37465;52.738;4.752;2023-03-23T10:31:45;18.65;;;3.58;;
51374;SDS011;37465;52.738;4.752;2023-03-23T10:34:15;17.27;;;3.53;;
51374;SDS011;37465;52.738;4.752;2023-03-23T10:36:50;15.17;;;3.00;;
51374;SDS011;37465;52.738;4.752;2023-03-23T10:39:19;16.10;;;3.65;;
51374;SDS011;37465;52.738;4.752;2023-03-23T10:41:46;15.18;;;3.10;;
51374;SDS011;37465;52.738;4.752;2023-03-23T10:44:14;16.73;;;3.10;;
51374;SDS011;37465;52.738;4.752;2023-03-23T10:46:43;18.20;;;3.80;;
51374;SDS011;37465;52.738;4.752;2023-03-23T10:49:14;13.55;;;3.30;;
51374;SDS011;37465;52.738;4.752;2023-03-23T10:51:43;14.50;;;2.88;;
51374;SDS011;37465;52.738;4.752;2023-03-23T10:54:11;17.13;;;3.70;;
51374;SDS011;37465;52.738;4.752;2023-03-23T10:56:38;18.07;;;3.83;;
51374;SDS011;37465;52.738;4.752;2023-03-23T10:59:12;16.52;;;3.35;;
51374;SDS011;37465;52.738;4.752;2023-03-23T11:01:39;14.95;;;3.50;;
51374;SDS011;37465;52.738;4.752;2023-03-23T11:04:12;17.33;;;3.78;;
51374;SDS011;37465;52.738;4.752;2023-03-23T11:06:42;18.42;;;4.15;;
51374;SDS011;37465;52.738;4.752;2023-03-23T11:09:10;20.00;;;3.53;;
51374;SDS011;37465;52.738;4.752;2023-03-23T11:11:38;13.77;;;3.23;;
51374;SDS011;37465;52.738;4.752;2023-03-23T11:14:14;17.73;;;4.15;;
51374;SDS011;37465;52.738;4.752;2023-03-23T11:16:42;14.07;;;3.47;;
51374;SDS011;37465;52.738;4.752;2023-03-23T11:19:15;12.37;;;3.30;;
51374;SDS011;37465;52.738;4.752;2023-03-23T11:21:45;17.83;;;3.40;;
51374;SDS011;37465;52.738;4.752;2023-03-23T11:24:13;16.88;;;3.67;;
51374;SDS011;37465;52.738;4.752;2023-03-23T11:26:40;15.98;;;3.40;;
51374;SDS011;37465;52.738;4.752;2023-03-23T11:29:09;17.88;;;3.72;;
51374;SDS011;37465;52.738;4.752;2023-03-23T11:31:38;15.57;;;3.05;;
51374;SDS011;37465;52.738;4.752;2023-03-23T11:34:09;21.57;;;3.97;;
51374;SDS011;37465;52.738;4.752;2023-03-23T11:36:38;16.50;;;3.20;;
51374;SDS011;37465;52.738;4.752;2023-03-23T11:39:18;16.02;;;3.28;;
51374;SDS011;37465;52.738;4.752;2023-03-23T11:41:46;17.17;;;3.75;;
51374;SDS011;37465;52.738;4.752;2023-03-23T11:44:13;16.20;;;3.35;;
51374;SDS011;37465;52.738;4.752;2023-03-23T11:46:42;18.50;;;3.70;;
51374;SDS011;37465;52.738;4.752;2023-03-23T11:49:12;14.10;;;3.33;;
51374;SDS011;37465;52.738;4.752;2023-03-23T11:51:44;16.27;;;3.30;;
51374;SDS011;37465;52.738;4.752;2023-03-23T11:54:13;16.75;;;3.67;;
51374;SDS011;37465;52.738;4.752;2023-03-23T11:56:42;16.75;;;3.92;;
51374;SDS011;37465;52.738;4.752;2023-03-23T11:59:10;16.00;;;3.53;;
51374;SDS011;37465;52.738;4.752;2023-03-23T12:01:44;16.63;;;3.42;;
51374;SDS011;37465;52.738;4.752;2023-03-23T12:04:19;13.57;;;3.53;;
51374;SDS011;37465;52.738;4.752;2023-03-23T12:06:53;17.10;;;3.33;;
51374;SDS011;37465;52.738;4.752;2023-03-23T12:09:24;12.70;;;3.28;;
51374;SDS011;37465;52.738;4.752;2023-03-23T12:11:56;14.18;;;3.15;;
51374;SDS011;37465;52.738;4.752;2023-03-23T12:14:27;16.30;;;3.65;;
51374;SDS011;37465;52.738;4.752;2023-03-23T12:16:59;12.20;;;3.17;;
51374;SDS011;37465;52.738;4.752;2023-03-23T12:19:28;13.88;;;3.25;;
51374;SDS011;37465;52.738;4.752;2023-03-23T12:22:02;14.30;;;3.20;;
51374;SDS011;37465;52.738;4.752;2023-03-23T12:24:40;13.52;;;3.22;;
51374;SDS011;37465;52.738;4.752;2023-03-23T12:27:12;10.85;;;2.95;;
51374;SDS011;37465;52.738;4.752;2023-03-23T12:29:47;11.77;;;3.17;;
51374;SDS011;37465;52.738;4.752;2023-03-23T12:32:20;14.10;;;3.17;;
51374;SDS011;37465;52.738;4.752;2023-03-23T12:34:50;11.75;;;3.45;;
51374;SDS011;37465;52.738;4.752;2023-03-23T12:37:25;12.20;;;3.22;;
51374;SDS011;37465;52.738;4.752;2023-03-23T12:39:59;11.35;;;3.05;;
51374;SDS011;37465;52.738;4.752;2023-03-23T12:42:35;11.02;;;3.00;;
51374;SDS011;37465;52.738;4.752;2023-03-23T12:45:06;11.00;;;3.10;;
51374;SDS011;37465;52.738;4.752;2023-03-23T12:47:36;11.75;;;3.20;;
51374;SDS011;37465;52.738;4.752;2023-03-23T12:50:05;12.95;;;3.08;;
51374;SDS011;37465;52.738;4.752;2023-03-23T12:52:35;10.57;;;2.80;;
51374;SDS011;37465;52.738;4.752;2023-03-23T12:55:05;11.45;;;2.78;;
51374;SDS011;37465;52.738;4.752;2023-03-23T12:57:40;9.48;;;2.40;;
51374;SDS011;37465;52.738;4.752;2023-03-23T13:00:12;12.85;;;3.00;;
51374;SDS011;37465;52.738;4.752;2023-03-23T13:02:41;9.75;;;2.58;;
51374;SDS011;37465;52.738;4.752;2023-03-23T13:05:09;12.85;;;3.10;;
51374;SDS011;37465;52.738;4.752;2023-03-23T13:07:41;11.60;;;2.72;;
51374;SDS011;37465;52.738;4.752;2023-03-23T13:10:12;11.20;;;2.63;;
51374;SDS011;37465;52.738;4.752;2023-03-23T13:12:41;9.80;;;2.42;;
51374;SDS011;37465;52.738;4.752;2023-03-23T13:15:11;10.02;;;2.42;;
51374;SDS011;37465;52.738;4.752;2023-03-23T13:17:46;10.57;;;2.60;;
51374;SDS011;37465;52.738;4.752;2023-03-23T13:20:23;6.97;;;2.15;;
51374;SDS011;37465;52.738;4.752;2023-03-23T13:22:58;11.23;;;2.70;;
51374;SDS011;37465;52.738;4.752;2023-03-23T13:25:29;10.40;;;2.58;;
51374;SDS011;37465;52.738;4.752;2023-03-23T13:27:57;9.47;;;2.53;;
51374;SDS011;37465;52.738;4.752;2023-03-23T13:30:24;12.45;;;3.00;;
51374;SDS011;37465;52.738;4.752;2023-03-23T13:33:00;11.48;;;2.60;;
51374;SDS011;37465;52.738;4.752;2023-03-23T13:35:32;12.57;;;3.15;;
51374;SDS011;37465;52.738;4.752;2023-03-23T13:38:00;13.37;;;2.90;;
51374;SDS011;37465;52.738;4.752;2023-03-23T13:40:28;12.52;;;2.75;;
51374;SDS011;37465;52.738;4.752;2023-03-23T13:42:55;12.43;;;3.05;;
51374;SDS011;37465;52.738;4.752;2023-03-23T13:45:23;12.45;;;3.22;;
51374;SDS011;37465;52.738;4.752;2023-03-23T13:48:01;10.93;;;3.00;;
51374;SDS011;37465;52.738;4.752;2023-03-23T13:50:28;10.03;;;2.83;;
51374;SDS011;37465;52.738;4.752;2023-03-23T13:52:57;11.05;;;2.80;;
51374;SDS011;37465;52.738;4.752;2023-03-23T13:55:39;10.93;;;2.75;;
51374;SDS011;37465;52.738;4.752;2023-03-23T13:58:10;14.57;;;3.50;;
51374;SDS011;37465;52.738;4.752;2023-03-23T14:00:44;10.80;;;2.97;;
51374;SDS011;37465;52.738;4.752;2023-03-23T14:03:13;11.32;;;3.08;;
51374;SDS011;37465;52.738;4.752;2023-03-23T14:05:40;13.05;;;3.13;;
51374;SDS011;37465;52.738;4.752;2023-03-23T14:08:14;10.57;;;2.90;;
51374;SDS011;37465;52.738;4.752;2023-03-23T14:10:50;10.75;;;2.60;;
51374;SDS011;37465;52.738;4.752;2023-03-23T14:13:19;13.18;;;3.03;;
51374;SDS011;37465;52.738;4.752;2023-03-23T14:15:54;12.73;;;3.10;;
51374;SDS011;37465;52.738;4.752;2023-03-23T14:18:21;11.65;;;3.30;;
51374;SDS011;37465;52.738;4.752;2023-03-23T14:20:48;11.88;;;3.20;;
51374;SDS011;37465;52.738;4.752;2023-03-23T14:23:15;12.02;;;3.28;;
51374;SDS011;37465;52.738;4.752;2023-03-23T14:25:42;13.30;;;3.38;;
51374;SDS011;37465;52.738;4.752;2023-03-23T14:28:17;14.68;;;3.30;;
51374;SDS011;37465;52.738;4.752;2023-03-23T14:30:44;13.07;;;3.15;;
51374;SDS011;37465;52.738;4.752;2023-03-23T14:33:10;13.18;;;3.60;;
51374;SDS011;37465;52.738;4.752;2023-03-23T14:35:40;14.55;;;3.50;;
51374;SDS011;37465;52.738;4.752;2023-03-23T14:38:10;14.13;;;4.32;;
51374;SDS011;37465;52.738;4.752;2023-03-23T14:40:37;14.18;;;3.63;;
51374;SDS011;37465;52.738;4.752;2023-03-23T14:43:03;14.55;;;3.53;;
51374;SDS011;37465;52.738;4.752;2023-03-23T14:45:32;13.18;;;3.63;;
51374;SDS011;37465;52.738;4.752;2023-03-23T14:48:00;14.80;;;4.03;;
51374;SDS011;37465;52.738;4.752;2023-03-23T14:50:27;11.75;;;3.33;;